createdAt,value
2019-03-10T00:00:59.421Z,21.75
2019-03-10T00:01:59.425Z,21.79
2019-03-10T00:02:59.430Z,21.79
2019-03-10T00:03:59.436Z,21.78
2019-03-10T00:04:59.467Z,21.74
2019-03-10T00:05:59.445Z,21.78
2019-03-10T00:06:59.451Z,21.81
2019-03-10T00:07:59.458Z,21.76
2019-03-10T00:08:59.464Z,21.81
2019-03-10T00:09:59.468Z,21.79
2019-03-10T00:10:59.476Z,21.78
2019-03-10T00:11:59.480Z,21.74
2019-03-10T00:12:59.484Z,21.79
2019-03-10T00:13:59.541Z,21.78
2019-03-10T00:14:59.497Z,21.76
2019-03-10T00:15:59.502Z,21.76
2019-03-10T00:16:59.508Z,21.76
2019-03-10T00:17:59.516Z,21.79
2019-03-10T00:18:59.517Z,21.76
2019-03-10T00:19:59.524Z,21.67
2019-03-10T00:20:59.529Z,21.72
2019-03-10T00:21:59.534Z,21.71
2019-03-10T00:22:59.539Z,21.71
2019-03-10T00:23:59.545Z,21.78
2019-03-10T00:24:59.550Z,21.81
2019-03-10T00:25:59.556Z,21.78
2019-03-10T00:26:59.561Z,21.76
2019-03-10T00:27:59.568Z,21.78
2019-03-10T00:28:59.573Z,21.82
2019-03-10T00:29:59.583Z,21.76
2019-03-10T00:30:59.583Z,21.72
2019-03-10T00:31:59.590Z,21.82
2019-03-10T00:32:59.595Z,21.81
2019-03-10T00:33:59.656Z,21.75
2019-03-10T00:34:59.603Z,21.83
2019-03-10T00:35:59.620Z,21.78
2019-03-10T00:36:59.617Z,21.81
2019-03-10T00:37:59.622Z,21.79
2019-03-10T00:38:59.627Z,21.75
2019-03-10T00:39:59.633Z,21.76
2019-03-10T00:40:59.638Z,21.72
2019-03-10T00:41:59.642Z,21.76
2019-03-10T00:42:59.649Z,21.71
2019-03-10T00:43:59.655Z,21.76
2019-03-10T00:44:59.661Z,21.75
2019-03-10T00:45:59.667Z,21.76
2019-03-10T00:46:59.671Z,21.78
2019-03-10T00:47:59.676Z,21.71
2019-03-10T00:48:59.683Z,21.67
2019-03-10T00:49:59.688Z,21.69
2019-03-10T00:50:59.692Z,21.69
2019-03-10T00:51:59.699Z,21.76
2019-03-10T00:52:59.704Z,21.67
2019-03-10T00:53:59.710Z,21.71
2019-03-10T00:54:59.712Z,21.69
2019-03-10T00:55:59.719Z,21.69
2019-03-10T00:56:59.726Z,21.76
2019-03-10T00:57:59.731Z,21.71
2019-03-10T00:58:59.736Z,21.63
2019-03-10T01:00:00.849Z,21.72
2019-03-10T01:00:59.747Z,21.69
2019-03-10T01:01:59.752Z,21.74
2019-03-10T01:02:59.758Z,21.71
2019-03-10T01:03:59.763Z,21.67
2019-03-10T01:04:59.767Z,21.71
2019-03-10T01:05:59.773Z,21.71
2019-03-10T01:07:01.730Z,21.74
2019-03-10T01:07:59.785Z,21.71
2019-03-10T01:08:59.790Z,21.72
2019-03-10T01:09:59.795Z,21.75
2019-03-10T01:10:59.808Z,21.67
2019-03-10T01:11:59.809Z,21.71
2019-03-10T01:12:59.854Z,21.74
2019-03-10T01:13:59.818Z,21.72
2019-03-10T01:14:59.823Z,21.71
2019-03-10T01:15:59.829Z,21.74
2019-03-10T01:16:59.835Z,21.69
2019-03-10T01:17:59.839Z,21.69
2019-03-10T01:18:59.845Z,21.76
2019-03-10T01:19:59.853Z,21.72
2019-03-10T01:20:59.856Z,21.67
2019-03-10T01:21:59.861Z,21.79
2019-03-10T01:22:59.865Z,21.75
2019-03-10T01:23:59.871Z,21.76
2019-03-10T01:24:59.877Z,21.72
2019-03-10T01:25:59.883Z,21.75
2019-03-10T01:26:59.888Z,21.72
2019-03-10T01:27:59.895Z,21.79
2019-03-10T01:28:59.901Z,21.78
2019-03-10T01:29:59.904Z,21.78
2019-03-10T01:30:59.908Z,21.79
2019-03-10T01:31:59.914Z,21.71
2019-03-10T01:32:59.922Z,21.69
2019-03-10T01:33:59.926Z,21.74
2019-03-10T01:34:59.932Z,21.72
2019-03-10T01:35:59.936Z,21.72
2019-03-10T01:36:59.941Z,21.75
2019-03-10T01:37:59.948Z,21.75
2019-03-10T01:38:59.952Z,21.74
2019-03-10T01:39:59.960Z,21.74
2019-03-10T01:40:59.964Z,21.74
2019-03-10T01:42:00.231Z,21.71
2019-03-10T01:42:59.973Z,21.75
2019-03-10T01:44:00.000Z,21.75
2019-03-10T01:44:59.986Z,21.75
2019-03-10T01:45:59.991Z,21.75
2019-03-10T01:46:59.997Z,21.78
2019-03-10T01:48:00.006Z,21.71
2019-03-10T01:49:00.009Z,21.79
2019-03-10T01:50:00.056Z,21.72
2019-03-10T01:51:00.019Z,21.79
2019-03-10T01:52:00.025Z,21.76
2019-03-10T01:53:00.045Z,21.76
2019-03-10T01:54:00.035Z,21.74
2019-03-10T01:55:00.039Z,21.72
2019-03-10T01:56:00.047Z,21.74
2019-03-10T01:57:00.052Z,21.67
2019-03-10T01:58:00.056Z,21.72
2019-03-10T01:59:00.069Z,21.72
2019-03-10T02:00:00.104Z,21.81
2019-03-10T02:01:00.072Z,21.74
2019-03-10T02:02:00.080Z,21.78
2019-03-10T02:03:00.082Z,21.74
2019-03-10T02:04:00.090Z,21.74
2019-03-10T02:05:00.186Z,21.75
2019-03-10T02:06:00.102Z,21.83
2019-03-10T02:07:00.106Z,21.74
2019-03-10T02:08:00.111Z,21.69
2019-03-10T02:09:00.116Z,21.72
2019-03-10T02:10:00.219Z,21.79
2019-03-10T02:11:00.128Z,21.74
2019-03-10T02:12:00.131Z,21.81
2019-03-10T02:13:00.138Z,21.82
2019-03-10T02:14:00.150Z,21.76
2019-03-10T02:15:00.396Z,21.82
2019-03-10T02:16:00.153Z,21.74
2019-03-10T02:17:00.160Z,21.78
2019-03-10T02:18:00.165Z,21.81
2019-03-10T02:19:00.171Z,21.72
2019-03-10T02:20:00.307Z,21.75
2019-03-10T02:21:00.183Z,21.72
2019-03-10T02:22:00.186Z,21.67
2019-03-10T02:23:00.190Z,21.78
2019-03-10T02:24:00.199Z,21.76
2019-03-10T02:25:00.476Z,21.69
2019-03-10T02:26:00.209Z,21.74
2019-03-10T02:27:00.213Z,21.72
2019-03-10T02:28:00.221Z,21.69
2019-03-10T02:29:00.228Z,21.76
2019-03-10T02:30:00.446Z,21.69
2019-03-10T02:31:00.236Z,21.75
2019-03-10T02:32:00.242Z,21.75
2019-03-10T02:33:00.249Z,21.82
2019-03-10T02:34:00.251Z,21.66
2019-03-10T02:35:00.305Z,21.79
2019-03-10T02:36:00.263Z,21.72
2019-03-10T02:37:00.275Z,21.74
2019-03-10T02:38:00.275Z,21.75
2019-03-10T02:39:00.290Z,21.82
2019-03-10T02:40:00.417Z,21.67
2019-03-10T02:41:00.290Z,21.76
2019-03-10T02:42:00.327Z,21.71
2019-03-10T02:43:00.300Z,21.63
2019-03-10T02:44:00.309Z,21.71
2019-03-10T02:45:00.590Z,21.75
2019-03-10T02:46:00.333Z,21.71
2019-03-10T02:47:00.338Z,21.76
2019-03-10T02:48:00.336Z,21.71
2019-03-10T02:49:00.335Z,21.74
2019-03-10T02:50:00.492Z,21.64
2019-03-10T02:51:00.345Z,21.78
2019-03-10T02:52:00.349Z,21.74
2019-03-10T02:53:00.358Z,21.67
2019-03-10T02:54:00.364Z,21.69
2019-03-10T02:55:00.409Z,21.74
2019-03-10T02:56:00.373Z,21.74
2019-03-10T02:57:00.390Z,21.74
2019-03-10T02:58:00.384Z,21.75
2019-03-10T02:59:00.388Z,21.72
2019-03-10T03:00:00.537Z,21.75
2019-03-10T03:01:00.400Z,21.76
2019-03-10T03:02:00.422Z,21.75
2019-03-10T03:03:00.409Z,21.67
2019-03-10T03:04:00.419Z,21.78
2019-03-10T03:05:00.669Z,21.71
2019-03-10T03:06:00.427Z,21.71
2019-03-10T03:07:00.431Z,21.74
2019-03-10T03:08:00.439Z,21.75
2019-03-10T03:09:00.450Z,21.69
2019-03-10T03:10:00.499Z,21.75
2019-03-10T03:11:00.454Z,21.71
2019-03-10T03:12:00.461Z,21.78
2019-03-10T03:13:00.464Z,21.78
2019-03-10T03:14:00.471Z,21.71
2019-03-10T03:15:00.526Z,21.67
2019-03-10T03:16:00.482Z,21.75
2019-03-10T03:17:00.487Z,21.75
2019-03-10T03:18:00.489Z,21.71
2019-03-10T03:19:00.495Z,21.69
2019-03-10T03:20:00.600Z,21.75
2019-03-10T03:21:00.509Z,21.71
2019-03-10T03:22:00.520Z,21.72
2019-03-10T03:23:00.518Z,21.72
2019-03-10T03:24:00.580Z,21.72
2019-03-10T03:25:00.531Z,21.67
2019-03-10T03:26:00.546Z,21.66
2019-03-10T03:27:02.524Z,21.60
2019-03-10T03:28:00.544Z,21.66
2019-03-10T03:29:00.551Z,21.74
2019-03-10T03:30:00.558Z,21.67
2019-03-10T03:31:00.813Z,21.67
2019-03-10T03:32:00.573Z,21.67
2019-03-10T03:33:00.581Z,21.67
2019-03-10T03:34:00.585Z,21.72
2019-03-10T03:35:00.702Z,21.75
2019-03-10T03:36:00.590Z,21.71
2019-03-10T03:37:00.595Z,21.71
2019-03-10T03:38:00.604Z,21.71
2019-03-10T03:39:00.618Z,21.72
2019-03-10T03:40:00.613Z,21.74
2019-03-10T03:41:00.627Z,21.69
2019-03-10T03:42:00.619Z,21.74
2019-03-10T03:43:00.625Z,21.66
2019-03-10T03:44:00.633Z,21.72
2019-03-10T03:45:00.662Z,21.72
2019-03-10T03:46:00.642Z,21.63
2019-03-10T03:47:00.647Z,21.63
2019-03-10T03:48:00.658Z,21.66
2019-03-10T03:49:00.667Z,21.67
2019-03-10T03:50:00.726Z,21.64
2019-03-10T03:51:00.673Z,21.75
2019-03-10T03:52:00.682Z,21.75
2019-03-10T03:53:00.680Z,21.69
2019-03-10T03:54:00.684Z,21.61
2019-03-10T03:55:00.702Z,21.74
2019-03-10T03:56:00.701Z,21.69
2019-03-10T03:57:00.703Z,21.74
2019-03-10T03:58:00.707Z,21.67
2019-03-10T03:59:00.716Z,21.72
2019-03-10T04:00:00.888Z,21.76
2019-03-10T04:01:00.727Z,21.75
2019-03-10T04:02:00.733Z,21.66
2019-03-10T04:03:00.765Z,21.71
2019-03-10T04:04:00.742Z,21.71
2019-03-10T04:05:00.761Z,21.71
2019-03-10T04:06:00.779Z,21.71
2019-03-10T04:07:00.758Z,21.63
2019-03-10T04:08:00.761Z,21.66
2019-03-10T04:09:00.768Z,21.60
2019-03-10T04:10:00.772Z,21.60
2019-03-10T04:11:00.780Z,21.72
2019-03-10T04:12:00.782Z,21.75
2019-03-10T04:13:00.787Z,21.67
2019-03-10T04:14:00.795Z,21.69
2019-03-10T04:15:00.821Z,21.63
2019-03-10T04:16:00.805Z,21.63
2019-03-10T04:17:00.813Z,21.67
2019-03-10T04:18:00.815Z,21.67
2019-03-10T04:19:00.820Z,21.67
2019-03-10T04:20:00.829Z,21.74
2019-03-10T04:21:00.835Z,21.66
2019-03-10T04:22:00.837Z,21.64
2019-03-10T04:23:00.860Z,21.66
2019-03-10T04:24:00.854Z,21.69
2019-03-10T04:25:00.857Z,21.66
2019-03-10T04:26:00.866Z,21.64
2019-03-10T04:27:00.870Z,21.63
2019-03-10T04:28:00.869Z,21.63
2019-03-10T04:29:00.876Z,21.61
2019-03-10T04:30:00.884Z,21.69
2019-03-10T04:31:00.895Z,21.63
2019-03-10T04:32:00.895Z,21.64
2019-03-10T04:33:00.896Z,21.59
2019-03-10T04:34:00.908Z,21.69
2019-03-10T04:35:00.916Z,21.66
2019-03-10T04:36:00.911Z,21.67
2019-03-10T04:37:00.923Z,21.67
2019-03-10T04:38:00.922Z,21.66
2019-03-10T04:39:00.929Z,21.69
2019-03-10T04:40:00.937Z,21.69
2019-03-10T04:41:00.942Z,21.71
2019-03-10T04:42:00.943Z,21.74
2019-03-10T04:43:00.963Z,21.71
2019-03-10T04:44:00.956Z,21.72
2019-03-10T04:45:00.960Z,21.66
2019-03-10T04:46:00.967Z,21.67
2019-03-10T04:47:00.970Z,21.66
2019-03-10T04:48:00.977Z,21.72
2019-03-10T04:49:00.983Z,21.79
2019-03-10T04:50:01.018Z,21.64
2019-03-10T04:51:00.993Z,21.66
2019-03-10T04:52:00.997Z,21.66
2019-03-10T04:53:01.004Z,21.61
2019-03-10T04:54:01.007Z,21.59
2019-03-10T04:55:01.014Z,21.60
2019-03-10T04:56:01.020Z,21.72
2019-03-10T04:57:01.026Z,21.66
2019-03-10T04:58:01.031Z,21.67
2019-03-10T04:59:01.137Z,21.64
2019-03-10T05:00:01.042Z,21.66
2019-03-10T05:01:01.047Z,21.64
2019-03-10T05:02:01.052Z,21.66
2019-03-10T05:03:01.059Z,21.60
2019-03-10T05:04:01.064Z,21.64
2019-03-10T05:05:01.072Z,21.64
2019-03-10T05:06:01.073Z,21.66
2019-03-10T05:07:01.079Z,21.69
2019-03-10T05:08:01.084Z,21.78
2019-03-10T05:09:01.092Z,21.60
2019-03-10T05:10:01.095Z,21.69
2019-03-10T05:11:01.104Z,21.60
2019-03-10T05:12:01.106Z,21.69
2019-03-10T05:13:01.117Z,21.64
2019-03-10T05:14:01.117Z,21.66
2019-03-10T05:15:01.123Z,21.66
2019-03-10T05:16:01.130Z,21.66
2019-03-10T05:17:01.133Z,21.66
2019-03-10T05:18:01.138Z,21.66
2019-03-10T05:19:01.188Z,21.71
2019-03-10T05:20:01.150Z,21.66
2019-03-10T05:21:01.155Z,21.71
2019-03-10T05:22:01.159Z,21.79
2019-03-10T05:23:01.164Z,21.71
2019-03-10T05:24:01.171Z,21.72
2019-03-10T05:25:01.177Z,21.69
2019-03-10T05:26:01.388Z,21.67
2019-03-10T05:27:01.186Z,21.63
2019-03-10T05:28:01.192Z,21.67
2019-03-10T05:29:01.198Z,21.61
2019-03-10T05:30:01.202Z,21.67
2019-03-10T05:31:01.210Z,21.72
2019-03-10T05:32:01.214Z,21.61
2019-03-10T05:33:01.536Z,21.67
2019-03-10T05:34:01.224Z,21.56
2019-03-10T05:35:01.234Z,21.69
2019-03-10T05:36:01.236Z,21.50
2019-03-10T05:37:01.243Z,21.69
2019-03-10T05:38:01.246Z,21.67
2019-03-10T05:39:01.255Z,21.59
2019-03-10T05:40:01.256Z,21.59
2019-03-10T05:41:01.263Z,21.64
2019-03-10T05:42:01.266Z,21.66
2019-03-10T05:43:01.274Z,21.63
2019-03-10T05:44:01.279Z,21.67
2019-03-10T05:45:01.283Z,21.60
2019-03-10T05:46:01.290Z,21.66
2019-03-10T05:47:01.294Z,21.64
2019-03-10T05:48:01.300Z,21.72
2019-03-10T05:49:01.306Z,21.64
2019-03-10T05:50:01.424Z,21.66
2019-03-10T05:51:01.315Z,21.72
2019-03-10T05:52:01.322Z,21.69
2019-03-10T05:53:01.327Z,21.61
2019-03-10T05:54:01.333Z,21.66
2019-03-10T05:55:01.339Z,21.64
2019-03-10T05:56:01.343Z,21.66
2019-03-10T05:57:01.349Z,21.66
2019-03-10T05:58:01.352Z,21.61
2019-03-10T05:59:01.357Z,21.74
2019-03-10T06:00:01.364Z,21.63
2019-03-10T06:01:01.370Z,21.61
2019-03-10T06:02:01.375Z,21.67
2019-03-10T06:03:01.382Z,21.66
2019-03-10T06:04:01.386Z,21.74
2019-03-10T06:05:01.393Z,21.66
2019-03-10T06:06:01.398Z,21.64
2019-03-10T06:07:01.405Z,21.66
2019-03-10T06:08:01.406Z,21.60
2019-03-10T06:09:01.413Z,21.72
2019-03-10T06:10:01.417Z,21.66
2019-03-10T06:11:01.422Z,21.63
2019-03-10T06:12:01.430Z,21.63
2019-03-10T06:13:01.434Z,21.64
2019-03-10T06:14:01.441Z,21.72
2019-03-10T06:15:01.446Z,21.71
2019-03-10T06:16:01.450Z,21.71
2019-03-10T06:17:01.457Z,21.71
2019-03-10T06:18:01.461Z,21.69
2019-03-10T06:19:01.466Z,21.69
2019-03-10T06:20:01.478Z,21.71
2019-03-10T06:21:01.477Z,21.75
2019-03-10T06:22:01.482Z,21.64
2019-03-10T06:23:01.490Z,21.67
2019-03-10T06:24:01.496Z,21.64
2019-03-10T06:25:01.501Z,21.66
2019-03-10T06:26:01.513Z,21.72
2019-03-10T06:27:01.509Z,21.78
2019-03-10T06:28:01.515Z,21.74
2019-03-10T06:29:01.521Z,21.75
2019-03-10T06:30:01.525Z,21.82
2019-03-10T06:31:01.530Z,21.82
2019-03-10T06:32:01.539Z,21.79
2019-03-10T06:33:01.543Z,21.82
2019-03-10T06:34:01.556Z,21.83
2019-03-10T06:35:01.554Z,21.82
2019-03-10T06:36:01.558Z,21.78
2019-03-10T06:37:01.562Z,21.79
2019-03-10T06:38:01.568Z,21.76
2019-03-10T06:39:01.579Z,21.76
2019-03-10T06:40:01.579Z,21.85
2019-03-10T06:41:01.585Z,21.79
2019-03-10T06:42:01.594Z,21.81
2019-03-10T06:43:01.598Z,21.83
2019-03-10T06:44:01.600Z,21.82
2019-03-10T06:45:01.607Z,21.85
2019-03-10T06:46:01.614Z,21.91
2019-03-10T06:47:01.617Z,21.79
2019-03-10T06:48:01.624Z,21.79
2019-03-10T06:49:01.628Z,21.83
2019-03-10T06:50:01.633Z,21.85
2019-03-10T06:51:01.638Z,21.98
2019-03-10T06:52:01.644Z,21.79
2019-03-10T06:53:01.650Z,21.83
2019-03-10T06:54:01.654Z,21.85
2019-03-10T06:55:01.661Z,21.82
2019-03-10T06:56:01.666Z,21.97
2019-03-10T06:57:01.671Z,21.90
2019-03-10T06:58:01.675Z,21.94
2019-03-10T06:59:01.734Z,21.91
2019-03-10T07:00:01.687Z,21.92
2019-03-10T07:01:01.693Z,21.95
2019-03-10T07:02:01.699Z,21.98
2019-03-10T07:03:01.703Z,21.94
2019-03-10T07:04:01.710Z,21.90
2019-03-10T07:05:01.721Z,21.90
2019-03-10T07:06:01.720Z,21.95
2019-03-10T07:07:01.725Z,21.88
2019-03-10T07:08:01.731Z,21.83
2019-03-10T07:09:01.735Z,21.91
2019-03-10T07:10:01.743Z,21.81
2019-03-10T07:11:01.751Z,21.90
2019-03-10T07:12:01.752Z,21.97
2019-03-10T07:13:01.757Z,21.92
2019-03-10T07:14:01.764Z,21.90
2019-03-10T07:15:01.769Z,21.88
2019-03-10T07:16:01.773Z,21.94
2019-03-10T07:17:01.780Z,21.95
2019-03-10T07:18:01.785Z,21.92
2019-03-10T07:19:01.788Z,21.99
2019-03-10T07:20:01.795Z,21.95
2019-03-10T07:21:01.808Z,21.94
2019-03-10T07:22:01.807Z,22.01
2019-03-10T07:23:01.811Z,22.09
2019-03-10T07:24:01.817Z,21.98
2019-03-10T07:25:01.821Z,22.06
2019-03-10T07:26:01.827Z,22.04
2019-03-10T07:27:02.336Z,22.04
2019-03-10T07:28:01.841Z,21.98
2019-03-10T07:29:01.845Z,22.01
2019-03-10T07:30:01.849Z,21.95
2019-03-10T07:31:01.856Z,22.02
2019-03-10T07:32:01.859Z,22.09
2019-03-10T07:33:01.867Z,22.02
2019-03-10T07:34:01.871Z,21.98
2019-03-10T07:35:01.882Z,22.02
2019-03-10T07:36:01.884Z,22.09
2019-03-10T07:37:01.888Z,22.13
2019-03-10T07:38:01.894Z,22.12
2019-03-10T07:39:01.900Z,22.14
2019-03-10T07:40:01.909Z,22.10
2019-03-10T07:41:01.912Z,22.01
2019-03-10T07:42:01.914Z,22.09
2019-03-10T07:43:01.924Z,21.99
2019-03-10T07:44:01.927Z,22.02
2019-03-10T07:45:01.933Z,21.98
2019-03-10T07:46:01.936Z,22.04
2019-03-10T07:47:01.941Z,22.10
2019-03-10T07:48:01.948Z,22.13
2019-03-10T07:49:01.953Z,22.10
2019-03-10T07:50:01.964Z,22.07
2019-03-10T07:51:01.965Z,22.07
2019-03-10T07:52:01.971Z,22.10
2019-03-10T07:53:01.976Z,22.07
2019-03-10T07:54:01.980Z,22.02
2019-03-10T07:55:01.986Z,22.02
2019-03-10T07:56:01.991Z,22.02
2019-03-10T07:57:01.999Z,21.98
2019-03-10T07:58:02.002Z,22.04
2019-03-10T07:59:02.012Z,22.02
2019-03-10T08:00:02.014Z,22.07
2019-03-10T08:01:02.022Z,22.04
2019-03-10T08:02:02.025Z,21.97
2019-03-10T08:03:02.031Z,22.04
2019-03-10T08:04:02.036Z,22.04
2019-03-10T08:05:02.091Z,21.98
2019-03-10T08:06:02.060Z,22.04
2019-03-10T08:07:02.054Z,22.07
2019-03-10T08:08:02.059Z,22.01
2019-03-10T08:09:02.064Z,22.01
2019-03-10T08:10:02.084Z,21.95
2019-03-10T08:11:02.078Z,21.95
2019-03-10T08:12:02.080Z,21.94
2019-03-10T08:13:02.086Z,22.06
2019-03-10T08:14:02.089Z,21.95
2019-03-10T08:15:02.097Z,21.97
2019-03-10T08:16:02.102Z,21.94
2019-03-10T08:17:02.107Z,21.97
2019-03-10T08:18:02.113Z,22.02
2019-03-10T08:19:02.118Z,21.92
2019-03-10T08:20:02.124Z,21.98
2019-03-10T08:21:02.130Z,21.98
2019-03-10T08:22:02.139Z,21.99
2019-03-10T08:23:02.142Z,21.92
2019-03-10T08:24:02.146Z,22.04
2019-03-10T08:25:02.152Z,22.02
2019-03-10T08:26:02.157Z,22.01
2019-03-10T08:27:02.163Z,21.99
2019-03-10T08:28:02.276Z,22.01
2019-03-10T08:29:02.173Z,21.99
2019-03-10T08:30:02.179Z,22.02
2019-03-10T08:31:02.296Z,22.07
2019-03-10T08:32:02.190Z,22.02
2019-03-10T08:33:02.194Z,22.04
2019-03-10T08:34:02.200Z,22.09
2019-03-10T08:35:02.208Z,22.12
2019-03-10T08:36:02.213Z,22.09
2019-03-10T08:37:02.218Z,22.07
2019-03-10T08:38:02.231Z,22.06
2019-03-10T08:39:02.229Z,22.13
2019-03-10T08:40:02.237Z,22.06
2019-03-10T08:41:02.256Z,22.12
2019-03-10T08:42:02.244Z,22.07
2019-03-10T08:43:02.250Z,22.09
2019-03-10T08:44:02.257Z,22.14
2019-03-10T08:45:02.264Z,22.23
2019-03-10T08:46:02.267Z,22.17
2019-03-10T08:47:02.275Z,22.17
2019-03-10T08:48:02.280Z,22.22
2019-03-10T08:49:02.288Z,22.28
2019-03-10T08:50:02.295Z,22.27
2019-03-10T08:51:02.293Z,22.25
2019-03-10T08:52:02.301Z,22.19
2019-03-10T08:53:02.307Z,22.16
2019-03-10T08:54:02.312Z,22.19
2019-03-10T08:55:02.316Z,22.22
2019-03-10T08:56:02.321Z,22.22
2019-03-10T08:57:02.330Z,22.22
2019-03-10T08:58:02.334Z,22.19
2019-03-10T08:59:02.340Z,22.19
2019-03-10T09:00:02.344Z,22.17
2019-03-10T09:01:02.351Z,22.23
2019-03-10T09:02:02.354Z,22.23
2019-03-10T09:03:02.359Z,22.28
2019-03-10T09:04:02.374Z,22.32
2019-03-10T09:05:02.377Z,22.31
2019-03-10T09:06:02.377Z,22.38
2019-03-10T09:07:02.383Z,22.34
2019-03-10T09:08:02.395Z,22.41
2019-03-10T09:09:02.394Z,22.32
2019-03-10T09:10:02.412Z,22.39
2019-03-10T09:11:02.410Z,22.31
2019-03-10T09:12:02.411Z,22.28
2019-03-10T09:13:02.417Z,22.23
2019-03-10T09:14:02.423Z,22.13
2019-03-10T09:15:02.427Z,22.09
2019-03-10T09:16:02.434Z,22.06
2019-03-10T09:17:02.442Z,21.74
2019-03-10T09:18:02.447Z,21.71
2019-03-10T09:19:02.449Z,21.75
2019-03-10T09:20:02.457Z,21.83
2019-03-10T09:21:02.467Z,22.06
2019-03-10T09:22:02.471Z,22.09
2019-03-10T09:23:02.473Z,22.09
2019-03-10T09:24:02.482Z,22.09
2019-03-10T09:25:02.485Z,22.17
2019-03-10T09:26:02.488Z,22.12
2019-03-10T09:27:02.495Z,22.09
2019-03-10T09:28:02.501Z,22.12
2019-03-10T09:29:02.508Z,22.12
2019-03-10T09:30:02.511Z,22.07
2019-03-10T09:31:02.521Z,22.09
2019-03-10T09:32:02.523Z,22.12
2019-03-10T09:33:02.530Z,22.07
2019-03-10T09:34:02.533Z,21.99
2019-03-10T09:35:02.539Z,21.72
2019-03-10T09:36:02.550Z,21.59
2019-03-10T09:37:02.562Z,21.54
2019-03-10T09:38:03.771Z,21.60
2019-03-10T09:39:02.569Z,21.74
2019-03-10T09:40:02.566Z,21.79
2019-03-10T09:41:02.577Z,21.88
2019-03-10T09:42:02.580Z,21.92
2019-03-10T09:43:02.586Z,22.01
2019-03-10T09:44:03.891Z,21.94
2019-03-10T09:45:02.595Z,22.04
2019-03-10T09:46:02.602Z,22.12
2019-03-10T09:47:02.604Z,22.07
2019-03-10T09:48:02.611Z,22.13
2019-03-10T09:49:02.618Z,22.23
2019-03-10T09:50:02.627Z,22.22
2019-03-10T09:51:02.657Z,22.37
2019-03-10T09:52:02.632Z,22.46
2019-03-10T09:53:02.638Z,22.46
2019-03-10T09:54:02.644Z,22.53
2019-03-10T09:55:02.652Z,22.57
2019-03-10T09:56:02.657Z,22.50
2019-03-10T09:57:02.661Z,22.43
2019-03-10T09:58:02.668Z,22.44
2019-03-10T09:59:02.671Z,22.44
2019-03-10T10:00:02.678Z,22.46
2019-03-10T10:01:02.683Z,22.41
2019-03-10T10:02:02.689Z,22.47
2019-03-10T10:03:02.694Z,22.54
2019-03-10T10:04:02.699Z,22.41
2019-03-10T10:05:02.714Z,22.43
2019-03-10T10:06:02.709Z,22.59
2019-03-10T10:07:02.715Z,22.57
2019-03-10T10:08:02.721Z,22.62
2019-03-10T10:09:02.728Z,22.64
2019-03-10T10:10:02.734Z,22.71
2019-03-10T10:11:02.743Z,22.71
2019-03-10T10:12:13.073Z,22.64
2019-03-10T10:13:02.754Z,22.59
2019-03-10T10:14:02.755Z,22.53
2019-03-10T10:15:02.761Z,22.49
2019-03-10T10:16:02.767Z,22.43
2019-03-10T10:17:02.773Z,22.41
2019-03-10T10:18:02.780Z,22.52
2019-03-10T10:19:02.787Z,22.47
2019-03-10T10:20:02.789Z,22.47
2019-03-10T10:21:02.804Z,22.53
2019-03-10T10:22:02.800Z,22.65
2019-03-10T10:23:02.806Z,22.71
2019-03-10T10:24:02.814Z,22.64
2019-03-10T10:25:02.821Z,22.83
2019-03-10T10:26:02.824Z,22.89
2019-03-10T10:27:02.862Z,22.93
2019-03-10T10:28:02.836Z,22.94
2019-03-10T10:29:02.843Z,22.97
2019-03-10T10:30:02.850Z,22.75
2019-03-10T10:31:02.853Z,22.83
2019-03-10T10:32:02.859Z,22.96
2019-03-10T10:33:02.868Z,23.05
2019-03-10T10:34:02.875Z,23.05
2019-03-10T10:35:02.876Z,23.07
2019-03-10T10:36:02.882Z,23.07
2019-03-10T10:37:02.890Z,23.05
2019-03-10T10:38:02.895Z,22.94
2019-03-10T10:39:02.900Z,23.08
2019-03-10T10:40:02.906Z,23.09
2019-03-10T10:41:02.911Z,23.09
2019-03-10T10:42:02.917Z,23.05
2019-03-10T10:43:02.921Z,23.12
2019-03-10T10:44:02.930Z,23.11
2019-03-10T10:45:02.939Z,23.07
2019-03-10T10:46:02.947Z,23.14
2019-03-10T10:47:02.947Z,23.15
2019-03-10T10:48:02.952Z,23.09
2019-03-10T10:49:02.963Z,23.15
2019-03-10T10:50:02.992Z,23.19
2019-03-10T10:51:02.977Z,23.15
2019-03-10T10:52:02.978Z,23.17
2019-03-10T10:53:02.985Z,23.19
2019-03-10T10:54:02.987Z,23.17
2019-03-10T10:55:02.994Z,23.17
2019-03-10T10:56:03.019Z,23.23
2019-03-10T10:57:03.017Z,23.29
2019-03-10T10:58:05.377Z,23.26
2019-03-10T10:59:03.018Z,23.23
2019-03-10T11:00:03.025Z,23.24
2019-03-10T11:01:03.034Z,23.35
2019-03-10T11:02:03.050Z,23.39
2019-03-10T11:03:03.069Z,23.38
2019-03-10T11:04:03.054Z,23.35
2019-03-10T11:05:03.056Z,23.38
2019-03-10T11:06:03.060Z,23.46
2019-03-10T11:07:03.069Z,23.42
2019-03-10T11:08:03.075Z,23.45
2019-03-10T11:09:03.218Z,23.47
2019-03-10T11:10:03.084Z,23.50
2019-03-10T11:11:03.091Z,23.57
2019-03-10T11:12:03.098Z,23.43
2019-03-10T11:13:03.103Z,23.52
2019-03-10T11:14:03.109Z,23.55
2019-03-10T11:15:03.117Z,23.65
2019-03-10T11:16:03.126Z,23.61
2019-03-10T11:17:03.127Z,23.65
2019-03-10T11:18:09.437Z,23.67
2019-03-10T11:19:03.139Z,23.70
2019-03-10T11:20:03.151Z,23.77
2019-03-10T11:21:03.152Z,23.82
2019-03-10T11:22:03.159Z,23.83
2019-03-10T11:23:03.165Z,23.85
2019-03-10T11:24:03.171Z,23.87
2019-03-10T11:25:03.178Z,23.98
2019-03-10T11:26:03.183Z,23.98
2019-03-10T11:27:03.190Z,24.00
2019-03-10T11:28:03.198Z,24.00
2019-03-10T11:29:04.069Z,24.01
2019-03-10T11:30:03.213Z,24.01
2019-03-10T11:31:03.215Z,24.07
2019-03-10T11:32:03.223Z,24.01
2019-03-10T11:33:03.240Z,24.02
2019-03-10T11:34:03.234Z,23.97
2019-03-10T11:35:03.240Z,24.16
2019-03-10T11:36:03.248Z,24.08
2019-03-10T11:37:03.254Z,23.95
2019-03-10T11:38:03.260Z,24.01
2019-03-10T11:39:03.266Z,24.00
2019-03-10T11:40:03.271Z,24.05
2019-03-10T11:41:03.279Z,24.13
2019-03-10T11:42:03.286Z,24.04
2019-03-10T11:43:03.292Z,24.04
2019-03-10T11:44:03.299Z,24.04
2019-03-10T11:45:03.306Z,24.02
2019-03-10T11:46:03.310Z,24.04
2019-03-10T11:47:03.323Z,24.00
2019-03-10T11:48:03.326Z,23.86
2019-03-10T11:49:03.330Z,23.80
2019-03-10T11:50:03.336Z,23.65
2019-03-10T11:51:03.586Z,23.42
2019-03-10T11:52:03.351Z,23.26
2019-03-10T11:53:03.413Z,23.17
2019-03-10T11:54:03.364Z,23.20
2019-03-10T11:55:03.424Z,23.19
2019-03-10T11:56:03.374Z,23.12
2019-03-10T11:57:03.383Z,23.04
2019-03-10T11:58:03.389Z,23.15
2019-03-10T11:59:03.397Z,23.15
2019-03-10T12:00:03.408Z,23.07
2019-03-10T12:01:03.408Z,23.04
2019-03-10T12:02:03.413Z,23.01
2019-03-10T12:03:03.419Z,23.05
2019-03-10T12:04:03.426Z,22.96
2019-03-10T12:05:03.440Z,22.99
2019-03-10T12:06:03.439Z,22.96
2019-03-10T12:07:03.446Z,23.04
2019-03-10T12:08:03.450Z,22.94
2019-03-10T12:09:03.463Z,22.90
2019-03-10T12:10:03.463Z,22.93
2019-03-10T12:11:03.469Z,22.82
2019-03-10T12:12:03.477Z,22.86
2019-03-10T12:13:03.489Z,22.89
2019-03-10T12:14:03.494Z,22.80
2019-03-10T12:15:03.494Z,22.90
2019-03-10T12:16:03.520Z,22.80
2019-03-10T12:17:03.507Z,22.80
2019-03-10T12:18:03.514Z,22.93
2019-03-10T12:19:03.520Z,22.89
2019-03-10T12:20:03.527Z,22.96
2019-03-10T12:21:03.532Z,23.01
2019-03-10T12:22:03.541Z,23.02
2019-03-10T12:23:03.545Z,22.97
2019-03-10T12:24:03.554Z,22.97
2019-03-10T12:25:03.560Z,22.96
2019-03-10T12:26:03.561Z,23.05
2019-03-10T12:27:03.571Z,23.17
2019-03-10T12:28:03.576Z,23.15
2019-03-10T12:29:03.582Z,23.26
2019-03-10T12:30:03.586Z,23.29
2019-03-10T12:31:03.593Z,23.26
2019-03-10T12:32:03.603Z,23.40
2019-03-10T12:33:03.610Z,23.32
2019-03-10T12:34:05.429Z,23.29
2019-03-10T12:35:03.621Z,23.26
2019-03-10T12:36:03.625Z,23.23
2019-03-10T12:37:03.633Z,23.27
2019-03-10T12:38:03.699Z,23.27
2019-03-10T12:39:03.644Z,23.26
2019-03-10T12:40:03.657Z,23.38
2019-03-10T12:41:03.668Z,23.35
2019-03-10T12:42:03.662Z,23.38
2019-03-10T12:43:03.669Z,23.38
2019-03-10T12:44:03.676Z,23.31
2019-03-10T12:45:03.681Z,23.11
2019-03-10T12:46:03.689Z,23.17
2019-03-10T12:47:03.697Z,23.05
2019-03-10T12:48:03.708Z,22.99
2019-03-10T12:49:03.706Z,22.94
2019-03-10T12:50:03.711Z,22.94
2019-03-10T12:51:03.730Z,22.93
2019-03-10T12:52:03.726Z,22.83
2019-03-10T12:53:03.731Z,22.82